BAW906 ESGG-EGLL
Flight info
| Callsign | BAW906 |
|---|---|
| Flight time | N/A |
| Altitude | 38000 |
| Route | VADIN DCT ABINO DCT ATTUS DCT BEDUM DCT SPY DCT ABNED L980 LOGAN |
| Aircraft | A319/M-SDE3FGHIRWY/LB1 |
Departure
| Time | 2026-05-05 06:53 |
|---|---|
| Airport | Göteborg Landvetter Airport (ESGG) |
Arrival
| Time | N/A |
|---|---|
| Airport | London Heathrow Airport (EGLL) |
| Time | Latitude | Longitude | Altitude | Speed | Heading |
|---|---|---|---|---|---|
| 2026-05-05 06:30 | 57.67005 | 12.29536 | 516 ft | 0 kts | 116° |
| 2026-05-05 06:40 | 57.67005 | 12.29533 | 516 ft | 2 kts | 116° |
| 2026-05-05 06:40 | 57.67016 | 12.29491 | 516 ft | 4 kts | 116° |
| 2026-05-05 06:41 | 57.67026 | 12.29454 | 516 ft | 4 kts | 112° |
| 2026-05-05 06:41 | 57.67029 | 12.29411 | 516 ft | 4 kts | 57° |
| 2026-05-05 06:41 | 57.67010 | 12.29381 | 516 ft | 4 kts | 26° |
| 2026-05-05 06:41 | 57.66987 | 12.29360 | 516 ft | 4 kts | 26° |
| 2026-05-05 06:42 | 57.66962 | 12.29339 | 516 ft | 4 kts | 26° |
| 2026-05-05 06:42 | 57.66938 | 12.29318 | 516 ft | 4 kts | 26° |
| 2026-05-05 06:42 | 57.66914 | 12.29296 | 516 ft | 4 kts | 26° |
| 2026-05-05 06:42 | 57.66897 | 12.29282 | 516 ft | 0 kts | 26° |
| 2026-05-05 06:47 | 57.66898 | 12.29283 | 516 ft | 2 kts | 26° |
| 2026-05-05 06:48 | 57.66940 | 12.29321 | 516 ft | 11 kts | 26° |
| 2026-05-05 06:48 | 57.66999 | 12.29252 | 516 ft | 15 kts | 293° |
| 2026-05-05 06:48 | 57.67015 | 12.29176 | 516 ft | 3 kts | 296° |
| 2026-05-05 06:48 | 57.67030 | 12.29129 | 516 ft | 6 kts | 299° |
| 2026-05-05 06:49 | 57.67032 | 12.29021 | 514 ft | 11 kts | 238° |
| 2026-05-05 06:49 | 57.66964 | 12.28953 | 514 ft | 12 kts | 205° |
| 2026-05-05 06:49 | 57.66880 | 12.28871 | 513 ft | 15 kts | 207° |
| 2026-05-05 06:49 | 57.66778 | 12.28776 | 513 ft | 18 kts | 206° |
| 2026-05-05 06:50 | 57.66660 | 12.28669 | 512 ft | 20 kts | 205° |
| 2026-05-05 06:50 | 57.66527 | 12.28548 | 512 ft | 22 kts | 208° |
| 2026-05-05 06:50 | 57.66380 | 12.28413 | 511 ft | 25 kts | 203° |
| 2026-05-05 06:50 | 57.66218 | 12.28268 | 510 ft | 27 kts | 207° |
| 2026-05-05 06:51 | 57.66040 | 12.28106 | 509 ft | 30 kts | 205° |
| 2026-05-05 06:51 | 57.65844 | 12.27929 | 507 ft | 33 kts | 207° |
| 2026-05-05 06:51 | 57.65631 | 12.27733 | 503 ft | 36 kts | 205° |
| 2026-05-05 06:51 | 57.65394 | 12.27522 | 500 ft | 39 kts | 206° |
| 2026-05-05 06:52 | 57.65135 | 12.27280 | 492 ft | 44 kts | 206° |
| 2026-05-05 06:52 | 57.64892 | 12.27057 | 485 ft | 23 kts | 216° |
| 2026-05-05 06:52 | 57.64955 | 12.26846 | 488 ft | 24 kts | 338° |
| 2026-05-05 06:52 | 57.65119 | 12.26921 | 492 ft | 28 kts | 25° |
| 2026-05-05 06:53 | 57.65450 | 12.27220 | 499 ft | 80 kts | 26° |
| 2026-05-05 06:53 | 57.66120 | 12.27826 | 509 ft | 133 kts | 25° |
| 2026-05-05 06:53 | 57.67076 | 12.28696 | 695 ft | 162 kts | 24° |
| 2026-05-05 06:53 | 57.68080 | 12.29616 | 1484 ft | 160 kts | 23° |
| 2026-05-05 06:54 | 57.69103 | 12.30548 | 2078 ft | 172 kts | 22° |
| 2026-05-05 06:54 | 57.70108 | 12.32024 | 2421 ft | 202 kts | 56° |
| 2026-05-05 06:54 | 57.70388 | 12.33748 | 2654 ft | 220 kts | 87° |